sensor_id;sensor_type;location;lat;lon;timestamp;P1;durP1;ratioP1;P2;durP2;ratioP2
39694;SDS011;25367;-35.352;149.036;2024-02-14T00:01:17;8.88;;;2.35;;
39694;SDS011;25367;-35.352;149.036;2024-02-14T00:03:49;5.63;;;1.95;;
39694;SDS011;25367;-35.352;149.036;2024-02-14T00:06:19;10.25;;;1.85;;
39694;SDS011;25367;-35.352;149.036;2024-02-14T00:08:48;8.88;;;1.70;;
39694;SDS011;25367;-35.352;149.036;2024-02-14T00:11:17;12.45;;;1.63;;
39694;SDS011;25367;-35.352;149.036;2024-02-14T00:13:47;7.75;;;1.55;;
39694;SDS011;25367;-35.352;149.036;2024-02-14T00:16:16;9.43;;;1.38;;
39694;SDS011;25367;-35.352;149.036;2024-02-14T00:18:46;8.05;;;1.77;;
39694;SDS011;25367;-35.352;149.036;2024-02-14T00:21:17;9.48;;;2.10;;
39694;SDS011;25367;-35.352;149.036;2024-02-14T00:23:47;13.88;;;2.35;;
39694;SDS011;25367;-35.352;149.036;2024-02-14T00:26:16;11.73;;;1.92;;
39694;SDS011;25367;-35.352;149.036;2024-02-14T00:28:48;6.30;;;1.60;;
39694;SDS011;25367;-35.352;149.036;2024-02-14T00:31:17;13.38;;;2.30;;
39694;SDS011;25367;-35.352;149.036;2024-02-14T00:33:47;10.60;;;1.70;;
39694;SDS011;25367;-35.352;149.036;2024-02-14T00:36:18;9.30;;;2.03;;
39694;SDS011;25367;-35.352;149.036;2024-02-14T00:38:48;10.88;;;1.90;;
39694;SDS011;25367;-35.352;149.036;2024-02-14T00:41:17;8.38;;;2.38;;
39694;SDS011;25367;-35.352;149.036;2024-02-14T00:43:46;17.58;;;2.10;;
39694;SDS011;25367;-35.352;149.036;2024-02-14T00:46:16;11.48;;;2.20;;
39694;SDS011;25367;-35.352;149.036;2024-02-14T00:48:46;11.98;;;2.28;;
39694;SDS011;25367;-35.352;149.036;2024-02-14T00:51:17;8.90;;;1.92;;
39694;SDS011;25367;-35.352;149.036;2024-02-14T00:53:46;7.78;;;1.95;;
39694;SDS011;25367;-35.352;149.036;2024-02-14T00:56:16;15.18;;;2.53;;
39694;SDS011;25367;-35.352;149.036;2024-02-14T00:58:45;10.77;;;2.17;;
39694;SDS011;25367;-35.352;149.036;2024-02-14T01:01:15;10.55;;;2.05;;
39694;SDS011;25367;-35.352;149.036;2024-02-14T01:03:44;8.02;;;2.20;;
39694;SDS011;25367;-35.352;149.036;2024-02-14T01:06:14;12.52;;;3.08;;
39694;SDS011;25367;-35.352;149.036;2024-02-14T01:08:45;11.73;;;2.30;;
39694;SDS011;25367;-35.352;149.036;2024-02-14T01:11:14;13.90;;;3.00;;
39694;SDS011;25367;-35.352;149.036;2024-02-14T01:13:44;11.75;;;2.50;;
39694;SDS011;25367;-35.352;149.036;2024-02-14T01:16:13;14.02;;;2.38;;
39694;SDS011;25367;-35.352;149.036;2024-02-14T01:18:43;13.88;;;2.78;;
39694;SDS011;25367;-35.352;149.036;2024-02-14T01:21:12;14.90;;;3.17;;
39694;SDS011;25367;-35.352;149.036;2024-02-14T01:23:43;11.65;;;2.90;;
39694;SDS011;25367;-35.352;149.036;2024-02-14T01:26:13;11.55;;;2.85;;
39694;SDS011;25367;-35.352;149.036;2024-02-14T01:28:42;13.30;;;3.17;;
39694;SDS011;25367;-35.352;149.036;2024-02-14T01:31:12;12.93;;;2.67;;
39694;SDS011;25367;-35.352;149.036;2024-02-14T01:33:41;11.13;;;2.67;;
39694;SDS011;25367;-35.352;149.036;2024-02-14T01:36:11;8.68;;;2.58;;
39694;SDS011;25367;-35.352;149.036;2024-02-14T01:38:40;11.68;;;3.00;;
39694;SDS011;25367;-35.352;149.036;2024-02-14T01:41:13;12.15;;;2.45;;
39694;SDS011;25367;-35.352;149.036;2024-02-14T01:43:43;24.17;;;3.20;;
39694;SDS011;25367;-35.352;149.036;2024-02-14T01:46:12;21.85;;;2.88;;
39694;SDS011;25367;-35.352;149.036;2024-02-14T01:48:42;15.40;;;2.60;;
39694;SDS011;25367;-35.352;149.036;2024-02-14T01:51:12;7.85;;;2.65;;
39694;SDS011;25367;-35.352;149.036;2024-02-14T01:53:46;9.80;;;2.45;;
39694;SDS011;25367;-35.352;149.036;2024-02-14T01:56:16;10.27;;;3.30;;
39694;SDS011;25367;-35.352;149.036;2024-02-14T01:58:45;12.27;;;3.13;;
39694;SDS011;25367;-35.352;149.036;2024-02-14T02:01:16;9.68;;;2.90;;
39694;SDS011;25367;-35.352;149.036;2024-02-14T02:03:45;12.10;;;2.60;;
39694;SDS011;25367;-35.352;149.036;2024-02-14T02:06:15;17.20;;;3.28;;
39694;SDS011;25367;-35.352;149.036;2024-02-14T02:08:46;11.60;;;2.88;;
39694;SDS011;25367;-35.352;149.036;2024-02-14T02:11:16;11.82;;;2.80;;
39694;SDS011;25367;-35.352;149.036;2024-02-14T02:13:45;11.73;;;2.92;;
39694;SDS011;25367;-35.352;149.036;2024-02-14T02:16:15;10.05;;;2.63;;
39694;SDS011;25367;-35.352;149.036;2024-02-14T02:18:45;17.30;;;3.53;;
39694;SDS011;25367;-35.352;149.036;2024-02-14T02:21:14;14.25;;;3.17;;
39694;SDS011;25367;-35.352;149.036;2024-02-14T02:23:46;14.63;;;2.58;;
39694;SDS011;25367;-35.352;149.036;2024-02-14T02:26:15;13.95;;;3.03;;
39694;SDS011;25367;-35.352;149.036;2024-02-14T02:28:44;14.48;;;3.00;;
39694;SDS011;25367;-35.352;149.036;2024-02-14T02:31:14;16.08;;;3.38;;
39694;SDS011;25367;-35.352;149.036;2024-02-14T02:33:44;11.02;;;2.92;;
39694;SDS011;25367;-35.352;149.036;2024-02-14T02:36:13;9.50;;;2.78;;
39694;SDS011;25367;-35.352;149.036;2024-02-14T02:38:42;9.20;;;3.15;;
39694;SDS011;25367;-35.352;149.036;2024-02-14T02:41:14;15.20;;;3.85;;
39694;SDS011;25367;-35.352;149.036;2024-02-14T02:43:44;11.93;;;3.70;;
39694;SDS011;25367;-35.352;149.036;2024-02-14T02:46:14;10.13;;;3.05;;
39694;SDS011;25367;-35.352;149.036;2024-02-14T02:48:46;9.30;;;3.45;;
39694;SDS011;25367;-35.352;149.036;2024-02-14T02:51:16;6.82;;;3.03;;
39694;SDS011;25367;-35.352;149.036;2024-02-14T02:53:47;10.85;;;2.95;;
39694;SDS011;25367;-35.352;149.036;2024-02-14T02:56:17;12.13;;;3.45;;
39694;SDS011;25367;-35.352;149.036;2024-02-14T02:58:46;13.25;;;3.53;;
39694;SDS011;25367;-35.352;149.036;2024-02-14T03:01:16;10.88;;;3.40;;
39694;SDS011;25367;-35.352;149.036;2024-02-14T03:03:45;11.35;;;3.50;;
39694;SDS011;25367;-35.352;149.036;2024-02-14T03:06:15;11.10;;;3.63;;
39694;SDS011;25367;-35.352;149.036;2024-02-14T03:08:44;15.15;;;3.50;;
39694;SDS011;25367;-35.352;149.036;2024-02-14T03:11:16;7.07;;;2.95;;
39694;SDS011;25367;-35.352;149.036;2024-02-14T03:13:45;13.50;;;3.40;;
39694;SDS011;25367;-35.352;149.036;2024-02-14T03:16:15;11.23;;;3.45;;
39694;SDS011;25367;-35.352;149.036;2024-02-14T03:18:44;16.08;;;3.80;;
39694;SDS011;25367;-35.352;149.036;2024-02-14T03:21:14;15.63;;;3.70;;
39694;SDS011;25367;-35.352;149.036;2024-02-14T03:23:43;13.95;;;3.70;;
39694;SDS011;25367;-35.352;149.036;2024-02-14T03:26:15;14.52;;;3.53;;
39694;SDS011;25367;-35.352;149.036;2024-02-14T03:28:45;13.77;;;4.13;;
39694;SDS011;25367;-35.352;149.036;2024-02-14T03:31:14;11.63;;;2.95;;
39694;SDS011;25367;-35.352;149.036;2024-02-14T03:33:44;8.95;;;3.10;;
39694;SDS011;25367;-35.352;149.036;2024-02-14T03:36:13;8.93;;;3.22;;
39694;SDS011;25367;-35.352;149.036;2024-02-14T03:38:43;12.05;;;3.20;;
39694;SDS011;25367;-35.352;149.036;2024-02-14T03:41:14;15.35;;;3.80;;
39694;SDS011;25367;-35.352;149.036;2024-02-14T03:43:43;7.63;;;3.25;;
39694;SDS011;25367;-35.352;149.036;2024-02-14T03:46:13;9.95;;;3.28;;
39694;SDS011;25367;-35.352;149.036;2024-02-14T03:48:43;9.82;;;3.05;;
39694;SDS011;25367;-35.352;149.036;2024-02-14T03:51:13;11.75;;;3.80;;
39694;SDS011;25367;-35.352;149.036;2024-02-14T03:53:42;13.25;;;3.22;;
39694;SDS011;25367;-35.352;149.036;2024-02-14T03:56:14;12.25;;;2.95;;
39694;SDS011;25367;-35.352;149.036;2024-02-14T03:58:43;11.25;;;3.70;;
39694;SDS011;25367;-35.352;149.036;2024-02-14T04:01:14;7.75;;;2.97;;
39694;SDS011;25367;-35.352;149.036;2024-02-14T04:03:44;9.25;;;3.10;;
39694;SDS011;25367;-35.352;149.036;2024-02-14T04:06:15;7.15;;;3.05;;
39694;SDS011;25367;-35.352;149.036;2024-02-14T04:08:44;8.43;;;3.75;;
39694;SDS011;25367;-35.352;149.036;2024-02-14T04:11:16;7.65;;;3.53;;
39694;SDS011;25367;-35.352;149.036;2024-02-14T04:13:45;9.00;;;2.88;;
39694;SDS011;25367;-35.352;149.036;2024-02-14T04:16:14;10.65;;;3.22;;
39694;SDS011;25367;-35.352;149.036;2024-02-14T04:18:48;10.55;;;3.50;;
39694;SDS011;25367;-35.352;149.036;2024-02-14T04:21:17;5.30;;;2.53;;
39694;SDS011;25367;-35.352;149.036;2024-02-14T04:23:47;8.90;;;3.63;;
39694;SDS011;25367;-35.352;149.036;2024-02-14T04:26:31;8.40;;;3.10;;
39694;SDS011;25367;-35.352;149.036;2024-02-14T04:29:01;8.77;;;3.30;;
39694;SDS011;25367;-35.352;149.036;2024-02-14T04:31:31;9.63;;;2.88;;
39694;SDS011;25367;-35.352;149.036;2024-02-14T04:34:00;9.13;;;2.95;;
39694;SDS011;25367;-35.352;149.036;2024-02-14T04:36:29;6.32;;;2.92;;
39694;SDS011;25367;-35.352;149.036;2024-02-14T04:38:59;9.45;;;3.42;;
39694;SDS011;25367;-35.352;149.036;2024-02-14T04:41:30;13.68;;;3.50;;
39694;SDS011;25367;-35.352;149.036;2024-02-14T04:44:00;5.40;;;2.58;;
39694;SDS011;25367;-35.352;149.036;2024-02-14T04:46:29;9.05;;;3.00;;
39694;SDS011;25367;-35.352;149.036;2024-02-14T04:48:59;9.75;;;3.33;;
39694;SDS011;25367;-35.352;149.036;2024-02-14T04:51:29;9.25;;;3.22;;
39694;SDS011;25367;-35.352;149.036;2024-02-14T04:53:58;10.15;;;3.28;;
39694;SDS011;25367;-35.352;149.036;2024-02-14T04:56:28;9.15;;;3.05;;
39694;SDS011;25367;-35.352;149.036;2024-02-14T04:59:01;7.07;;;2.75;;
39694;SDS011;25367;-35.352;149.036;2024-02-14T05:01:30;11.25;;;3.05;;
39694;SDS011;25367;-35.352;149.036;2024-02-14T05:04:00;7.68;;;3.10;;
39694;SDS011;25367;-35.352;149.036;2024-02-14T05:06:29;7.97;;;3.53;;
39694;SDS011;25367;-35.352;149.036;2024-02-14T05:08:58;9.32;;;3.50;;
39694;SDS011;25367;-35.352;149.036;2024-02-14T05:11:28;9.10;;;3.75;;
39694;SDS011;25367;-35.352;149.036;2024-02-14T05:13:59;11.30;;;3.90;;
39694;SDS011;25367;-35.352;149.036;2024-02-14T05:16:29;10.68;;;3.97;;
39694;SDS011;25367;-35.352;149.036;2024-02-14T05:18:58;12.60;;;3.35;;
39694;SDS011;25367;-35.352;149.036;2024-02-14T05:21:27;10.95;;;3.05;;
39694;SDS011;25367;-35.352;149.036;2024-02-14T05:23:57;11.70;;;3.17;;
39694;SDS011;25367;-35.352;149.036;2024-02-14T05:26:26;7.90;;;3.40;;
39694;SDS011;25367;-35.352;149.036;2024-02-14T05:28:58;13.55;;;3.25;;
39694;SDS011;25367;-35.352;149.036;2024-02-14T05:31:29;7.88;;;2.83;;
39694;SDS011;25367;-35.352;149.036;2024-02-14T05:34:11;8.93;;;2.88;;
39694;SDS011;25367;-35.352;149.036;2024-02-14T05:36:41;9.65;;;3.30;;
39694;SDS011;25367;-35.352;149.036;2024-02-14T05:39:10;11.43;;;3.60;;
39694;SDS011;25367;-35.352;149.036;2024-02-14T05:41:40;8.07;;;3.05;;
39694;SDS011;25367;-35.352;149.036;2024-02-14T05:44:11;8.88;;;2.97;;
39694;SDS011;25367;-35.352;149.036;2024-02-14T05:46:40;6.05;;;2.90;;
39694;SDS011;25367;-35.352;149.036;2024-02-14T05:49:10;10.07;;;3.03;;
39694;SDS011;25367;-35.352;149.036;2024-02-14T05:51:39;9.55;;;2.88;;
39694;SDS011;25367;-35.352;149.036;2024-02-14T05:54:09;11.90;;;3.00;;
39694;SDS011;25367;-35.352;149.036;2024-02-14T05:56:38;12.63;;;3.63;;
39694;SDS011;25367;-35.352;149.036;2024-02-14T05:59:08;17.05;;;3.65;;
39694;SDS011;25367;-35.352;149.036;2024-02-14T06:01:39;6.43;;;3.65;;
39694;SDS011;25367;-35.352;149.036;2024-02-14T06:04:09;11.13;;;3.17;;
39694;SDS011;25367;-35.352;149.036;2024-02-14T06:06:38;9.02;;;2.67;;
39694;SDS011;25367;-35.352;149.036;2024-02-14T18:44:34;0.50;;;0.30;;
39694;SDS011;25367;-35.352;149.036;2024-02-14T18:47:03;1.70;;;0.20;;
39694;SDS011;25367;-35.352;149.036;2024-02-14T18:49:33;0.30;;;0.20;;
39694;SDS011;25367;-35.352;149.036;2024-02-14T18:52:02;0.82;;;0.40;;
39694;SDS011;25367;-35.352;149.036;2024-02-14T18:54:32;2.28;;;0.50;;
39694;SDS011;25367;-35.352;149.036;2024-02-14T18:57:01;2.72;;;0.70;;
39694;SDS011;25367;-35.352;149.036;2024-02-14T18:59:33;0.63;;;0.40;;
39694;SDS011;25367;-35.352;149.036;2024-02-14T19:02:02;0.47;;;0.38;;
39694;SDS011;25367;-35.352;149.036;2024-02-14T19:04:32;1.05;;;0.47;;
39694;SDS011;25367;-35.352;149.036;2024-02-14T19:07:02;0.68;;;0.40;;
39694;SDS011;25367;-35.352;149.036;2024-02-14T19:09:31;1.40;;;0.50;;
39694;SDS011;25367;-35.352;149.036;2024-02-14T19:12:01;1.88;;;0.93;;
39694;SDS011;25367;-35.352;149.036;2024-02-14T19:14:33;1.63;;;0.57;;
39694;SDS011;25367;-35.352;149.036;2024-02-14T19:17:03;1.15;;;0.60;;
39694;SDS011;25367;-35.352;149.036;2024-02-14T19:19:32;3.92;;;0.88;;
39694;SDS011;25367;-35.352;149.036;2024-02-14T19:22:02;2.38;;;0.70;;
39694;SDS011;25367;-35.352;149.036;2024-02-14T19:24:31;1.60;;;0.55;;
39694;SDS011;25367;-35.352;149.036;2024-02-14T19:27:01;6.75;;;0.85;;
39694;SDS011;25367;-35.352;149.036;2024-02-14T19:29:30;2.03;;;0.65;;
39694;SDS011;25367;-35.352;149.036;2024-02-14T19:32:02;2.63;;;0.55;;
39694;SDS011;25367;-35.352;149.036;2024-02-14T19:34:31;5.28;;;0.85;;
39694;SDS011;25367;-35.352;149.036;2024-02-14T19:37:01;2.95;;;0.95;;
39694;SDS011;25367;-35.352;149.036;2024-02-14T19:39:30;3.33;;;1.00;;
39694;SDS011;25367;-35.352;149.036;2024-02-14T19:42:00;4.28;;;0.80;;
39694;SDS011;25367;-35.352;149.036;2024-02-14T19:44:29;2.00;;;0.68;;
39694;SDS011;25367;-35.352;149.036;2024-02-14T19:47:00;3.95;;;0.77;;
39694;SDS011;25367;-35.352;149.036;2024-02-14T19:49:30;3.45;;;0.80;;
39694;SDS011;25367;-35.352;149.036;2024-02-14T19:52:00;4.22;;;0.60;;
39694;SDS011;25367;-35.352;149.036;2024-02-14T19:54:30;9.10;;;0.98;;
39694;SDS011;25367;-35.352;149.036;2024-02-14T19:57:00;5.40;;;0.98;;
39694;SDS011;25367;-35.352;149.036;2024-02-14T19:59:29;6.55;;;1.20;;
39694;SDS011;25367;-35.352;149.036;2024-02-14T20:02:00;6.05;;;0.75;;
39694;SDS011;25367;-35.352;149.036;2024-02-14T20:04:30;11.55;;;0.80;;
39694;SDS011;25367;-35.352;149.036;2024-02-14T20:07:00;8.43;;;1.00;;
39694;SDS011;25367;-35.352;149.036;2024-02-14T20:09:29;4.60;;;1.17;;
39694;SDS011;25367;-35.352;149.036;2024-02-14T20:11:58;8.13;;;1.15;;
39694;SDS011;25367;-35.352;149.036;2024-02-14T20:14:28;7.72;;;0.90;;
39694;SDS011;25367;-35.352;149.036;2024-02-14T20:16:57;2.75;;;0.60;;
39694;SDS011;25367;-35.352;149.036;2024-02-14T20:19:29;4.70;;;0.90;;
39694;SDS011;25367;-35.352;149.036;2024-02-14T20:21:58;3.88;;;1.20;;
39694;SDS011;25367;-35.352;149.036;2024-02-14T20:24:28;5.20;;;0.90;;
39694;SDS011;25367;-35.352;149.036;2024-02-14T20:26:57;3.35;;;0.70;;
39694;SDS011;25367;-35.352;149.036;2024-02-14T20:29:27;6.10;;;0.70;;
39694;SDS011;25367;-35.352;149.036;2024-02-14T20:31:56;5.70;;;0.93;;
39694;SDS011;25367;-35.352;149.036;2024-02-14T20:34:28;4.18;;;0.60;;
39694;SDS011;25367;-35.352;149.036;2024-02-14T20:36:57;3.78;;;0.80;;
39694;SDS011;25367;-35.352;149.036;2024-02-14T20:39:26;4.38;;;0.75;;
39694;SDS011;25367;-35.352;149.036;2024-02-14T20:41:56;1.95;;;0.70;;
39694;SDS011;25367;-35.352;149.036;2024-02-14T20:44:25;2.17;;;0.68;;
39694;SDS011;25367;-35.352;149.036;2024-02-14T20:46:55;11.57;;;1.13;;
39694;SDS011;25367;-35.352;149.036;2024-02-14T20:49:24;4.07;;;0.70;;
39694;SDS011;25367;-35.352;149.036;2024-02-14T20:51:55;5.60;;;0.73;;
39694;SDS011;25367;-35.352;149.036;2024-02-14T20:54:25;4.13;;;0.93;;
39694;SDS011;25367;-35.352;149.036;2024-02-14T20:56:54;3.92;;;0.70;;
39694;SDS011;25367;-35.352;149.036;2024-02-14T20:59:24;2.25;;;0.55;;
39694;SDS011;25367;-35.352;149.036;2024-02-14T21:01:53;4.50;;;0.80;;
39694;SDS011;25367;-35.352;149.036;2024-02-14T21:04:22;12.65;;;1.77;;
39694;SDS011;25367;-35.352;149.036;2024-02-14T21:06:54;8.00;;;0.90;;
39694;SDS011;25367;-35.352;149.036;2024-02-14T21:09:23;5.28;;;0.82;;
39694;SDS011;25367;-35.352;149.036;2024-02-14T21:11:52;6.10;;;0.63;;
39694;SDS011;25367;-35.352;149.036;2024-02-14T21:14:22;7.43;;;1.08;;
39694;SDS011;25367;-35.352;149.036;2024-02-14T21:16:51;9.77;;;1.02;;
39694;SDS011;25367;-35.352;149.036;2024-02-14T21:19:21;10.07;;;0.75;;
39694;SDS011;25367;-35.352;149.036;2024-02-14T21:21:50;6.93;;;0.70;;
39694;SDS011;25367;-35.352;149.036;2024-02-14T21:24:22;2.30;;;0.90;;
39694;SDS011;25367;-35.352;149.036;2024-02-14T21:26:51;5.28;;;0.68;;
39694;SDS011;25367;-35.352;149.036;2024-02-14T21:29:22;9.40;;;1.40;;
39694;SDS011;25367;-35.352;149.036;2024-02-14T21:31:51;5.50;;;0.68;;
39694;SDS011;25367;-35.352;149.036;2024-02-14T21:34:21;3.65;;;1.02;;
39694;SDS011;25367;-35.352;149.036;2024-02-14T21:36:50;4.53;;;1.00;;
39694;SDS011;25367;-35.352;149.036;2024-02-14T21:39:22;9.77;;;0.90;;
39694;SDS011;25367;-35.352;149.036;2024-02-14T21:41:51;4.18;;;0.55;;
39694;SDS011;25367;-35.352;149.036;2024-02-14T21:44:21;3.80;;;0.60;;
39694;SDS011;25367;-35.352;149.036;2024-02-14T21:46:50;7.50;;;1.13;;
39694;SDS011;25367;-35.352;149.036;2024-02-14T21:49:19;2.63;;;0.80;;
39694;SDS011;25367;-35.352;149.036;2024-02-14T21:51:49;4.00;;;0.77;;
39694;SDS011;25367;-35.352;149.036;2024-02-14T21:54:20;3.83;;;0.73;;
39694;SDS011;25367;-35.352;149.036;2024-02-14T21:56:50;1.30;;;0.40;;
39694;SDS011;25367;-35.352;149.036;2024-02-14T21:59:19;2.47;;;0.50;;
39694;SDS011;25367;-35.352;149.036;2024-02-14T22:01:49;5.45;;;0.40;;
39694;SDS011;25367;-35.352;149.036;2024-02-14T22:04:18;2.42;;;0.57;;
39694;SDS011;25367;-35.352;149.036;2024-02-14T22:06:48;1.58;;;0.40;;
39694;SDS011;25367;-35.352;149.036;2024-02-14T22:09:17;3.38;;;0.70;;
39694;SDS011;25367;-35.352;149.036;2024-02-14T22:11:49;2.40;;;0.47;;
39694;SDS011;25367;-35.352;149.036;2024-02-14T22:14:18;1.63;;;0.43;;
39694;SDS011;25367;-35.352;149.036;2024-02-14T22:16:48;1.30;;;0.40;;
39694;SDS011;25367;-35.352;149.036;2024-02-14T22:19:18;6.20;;;0.60;;
39694;SDS011;25367;-35.352;149.036;2024-02-14T22:21:47;2.97;;;0.43;;
39694;SDS011;25367;-35.352;149.036;2024-02-14T22:24:17;0.40;;;0.20;;
39694;SDS011;25367;-35.352;149.036;2024-02-14T22:26:48;3.92;;;0.50;;
39694;SDS011;25367;-35.352;149.036;2024-02-14T22:29:18;5.55;;;0.93;;
39694;SDS011;25367;-35.352;149.036;2024-02-14T22:31:47;1.45;;;0.45;;
39694;SDS011;25367;-35.352;149.036;2024-02-14T22:34:17;2.05;;;0.73;;
39694;SDS011;25367;-35.352;149.036;2024-02-14T22:36:46;2.60;;;0.82;;
39694;SDS011;25367;-35.352;149.036;2024-02-14T22:39:16;4.22;;;0.50;;
39694;SDS011;25367;-35.352;149.036;2024-02-14T22:41:47;1.25;;;0.45;;
39694;SDS011;25367;-35.352;149.036;2024-02-14T22:44:17;1.35;;;0.50;;
39694;SDS011;25367;-35.352;149.036;2024-02-14T22:46:46;1.83;;;0.70;;
39694;SDS011;25367;-35.352;149.036;2024-02-14T22:49:16;1.42;;;0.45;;
39694;SDS011;25367;-35.352;149.036;2024-02-14T22:51:46;2.05;;;0.55;;
39694;SDS011;25367;-35.352;149.036;2024-02-14T22:54:15;5.18;;;0.50;;
39694;SDS011;25367;-35.352;149.036;2024-02-14T22:56:45;3.13;;;0.65;;
39694;SDS011;25367;-35.352;149.036;2024-02-14T22:59:16;1.20;;;0.40;;
39694;SDS011;25367;-35.352;149.036;2024-02-14T23:01:46;3.28;;;0.50;;
39694;SDS011;25367;-35.352;149.036;2024-02-14T23:04:15;2.22;;;0.55;;
39694;SDS011;25367;-35.352;149.036;2024-02-14T23:06:45;2.17;;;0.43;;
39694;SDS011;25367;-35.352;149.036;2024-02-14T23:09:14;2.38;;;0.63;;
39694;SDS011;25367;-35.352;149.036;2024-02-14T23:11:44;1.55;;;0.40;;
39694;SDS011;25367;-35.352;149.036;2024-02-14T23:14:15;2.97;;;0.60;;
39694;SDS011;25367;-35.352;149.036;2024-02-14T23:16:45;1.75;;;0.40;;
39694;SDS011;25367;-35.352;149.036;2024-02-14T23:19:14;3.60;;;0.30;;
39694;SDS011;25367;-35.352;149.036;2024-02-14T23:21:43;6.47;;;0.50;;
39694;SDS011;25367;-35.352;149.036;2024-02-14T23:24:13;5.80;;;0.77;;
39694;SDS011;25367;-35.352;149.036;2024-02-14T23:26:42;2.33;;;0.80;;
39694;SDS011;25367;-35.352;149.036;2024-02-14T23:29:11;4.78;;;0.70;;
39694;SDS011;25367;-35.352;149.036;2024-02-14T23:31:43;4.78;;;0.95;;
39694;SDS011;25367;-35.352;149.036;2024-02-14T23:34:12;1.45;;;0.52;;
39694;SDS011;25367;-35.352;149.036;2024-02-14T23:36:42;2.80;;;0.50;;
39694;SDS011;25367;-35.352;149.036;2024-02-14T23:39:11;2.63;;;0.55;;
39694;SDS011;25367;-35.352;149.036;2024-02-14T23:41:41;0.88;;;0.40;;
39694;SDS011;25367;-35.352;149.036;2024-02-14T23:44:10;0.68;;;0.30;;
39694;SDS011;25367;-35.352;149.036;2024-02-14T23:46:42;4.93;;;0.60;;
39694;SDS011;25367;-35.352;149.036;2024-02-14T23:49:11;3.28;;;0.43;;
39694;SDS011;25367;-35.352;149.036;2024-02-14T23:51:41;3.75;;;0.88;;
39694;SDS011;25367;-35.352;149.036;2024-02-14T23:54:10;3.05;;;0.60;;
39694;SDS011;25367;-35.352;149.036;2024-02-14T23:56:40;7.75;;;1.48;;
39694;SDS011;25367;-35.352;149.036;2024-02-14T23:59:13;9.07;;;0.70;;
